sensor_id;sensor_type;location;lat;lon;timestamp;P1;durP1;ratioP1;P2;durP2;ratioP2
63953;SDS011;50128;52.094;5.232;2023-04-23T00:01:06;97.8;;;80.11;;
63953;SDS011;50128;52.094;5.232;2023-04-23T00:02:43;87.9;;;76.0;;
63953;SDS011;50128;52.094;5.232;2023-04-23T00:05:58;95.0;;;76.7;;
63953;SDS011;50128;52.094;5.232;2023-04-23T00:07:39;102.7;;;82.2;;
63953;SDS011;50128;52.094;5.232;2023-04-23T00:09:17;102.6;;;82.3;;
63953;SDS011;50128;52.094;5.232;2023-04-23T00:12:34;97.5;;;80.5;;
63953;SDS011;50128;52.094;5.232;2023-04-23T00:14:11;99.5;;;80.5;;
63953;SDS011;50128;52.094;5.232;2023-04-23T00:15:48;102.6;;;80.7;;
63953;SDS011;50128;52.094;5.232;2023-04-23T00:17:25;105.8;;;83.5;;
63953;SDS011;50128;52.094;5.232;2023-04-23T00:20:38;95.8;;;79.2;;
63953;SDS011;50128;52.094;5.232;2023-04-23T00:22:14;106.0;;;84.7;;
63953;SDS011;50128;52.094;5.232;2023-04-23T00:23:51;97.9;;;79.7;;
63953;SDS011;50128;52.094;5.232;2023-04-23T00:27:04;99.4;;;82.1;;
63953;SDS011;50128;52.094;5.232;2023-04-23T00:28:41;97.9;;;80.2;;
63953;SDS011;50128;52.094;5.232;2023-04-23T00:30:17;112.5;;;87.1;;
63953;SDS011;50128;52.094;5.232;2023-04-23T00:31:53;101.4;;;79.5;;
63953;SDS011;50128;52.094;5.232;2023-04-23T00:35:06;101.6;;;81.5;;
63953;SDS011;50128;52.094;5.232;2023-04-23T00:36:43;111.3;;;87.8;;
63953;SDS011;50128;52.094;5.232;2023-04-23T00:38:19;117.7;;;89.4;;
63953;SDS011;50128;52.094;5.232;2023-04-23T00:41:32;108.0;;;84.3;;
63953;SDS011;50128;52.094;5.232;2023-04-23T00:43:09;100.2;;;82.0;;
63953;SDS011;50128;52.094;5.232;2023-04-23T00:44:46;101.3;;;80.91;;
63953;SDS011;50128;52.094;5.232;2023-04-23T00:48:01;109.0;;;86.1;;
63953;SDS011;50128;52.094;5.232;2023-04-23T00:49:37;105.2;;;83.0;;
63953;SDS011;50128;52.094;5.232;2023-04-23T00:51:14;113.3;;;88.8;;
63953;SDS011;50128;52.094;5.232;2023-04-23T00:52:52;114.1;;;87.5;;
63953;SDS011;50128;52.094;5.232;2023-04-23T00:56:05;99.4;;;79.7;;
63953;SDS011;50128;52.094;5.232;2023-04-23T00:57:42;109.3;;;85.9;;
63953;SDS011;50128;52.094;5.232;2023-04-23T00:59:19;102.8;;;81.5;;
63953;SDS011;50128;52.094;5.232;2023-04-23T01:02:34;100.4;;;83.1;;
63953;SDS011;50128;52.094;5.232;2023-04-23T01:04:12;101.9;;;81.8;;
63953;SDS011;50128;52.094;5.232;2023-04-23T01:05:51;97.7;;;80.2;;
63953;SDS011;50128;52.094;5.232;2023-04-23T01:07:28;99.9;;;79.5;;
63953;SDS011;50128;52.094;5.232;2023-04-23T01:10:42;92.3;;;75.41;;
63953;SDS011;50128;52.094;5.232;2023-04-23T01:12:20;102.2;;;83.2;;
63953;SDS011;50128;52.094;5.232;2023-04-23T01:13:58;100.8;;;80.8;;
63953;SDS011;50128;52.094;5.232;2023-04-23T01:17:10;92.3;;;74.61;;
63953;SDS011;50128;52.094;5.232;2023-04-23T01:18:47;101.8;;;81.8;;
63953;SDS011;50128;52.094;5.232;2023-04-23T01:20:23;89.6;;;76.41;;
63953;SDS011;50128;52.094;5.232;2023-04-23T01:23:37;96.9;;;79.41;;
63953;SDS011;50128;52.094;5.232;2023-04-23T01:25:14;103.2;;;82.8;;
63953;SDS011;50128;52.094;5.232;2023-04-23T01:26:50;94.7;;;77.11;;
63953;SDS011;50128;52.094;5.232;2023-04-23T01:28:28;93.7;;;76.41;;
63953;SDS011;50128;52.094;5.232;2023-04-23T01:31:43;95.7;;;77.7;;
63953;SDS011;50128;52.094;5.232;2023-04-23T01:33:19;98.8;;;79.91;;
63953;SDS011;50128;52.094;5.232;2023-04-23T01:34:55;98.8;;;79.91;;
63953;SDS011;50128;52.094;5.232;2023-04-23T01:38:10;84.1;;;72.0;;
63953;SDS011;50128;52.094;5.232;2023-04-23T01:39:48;97.6;;;78.7;;
63953;SDS011;50128;52.094;5.232;2023-04-23T01:41:25;91.0;;;75.3;;
63953;SDS011;50128;52.094;5.232;2023-04-23T01:43:03;88.3;;;73.41;;
63953;SDS011;50128;52.094;5.232;2023-04-23T01:46:19;86.5;;;72.41;;
63953;SDS011;50128;52.094;5.232;2023-04-23T01:47:56;88.0;;;71.7;;
63953;SDS011;50128;52.094;5.232;2023-04-23T01:49:33;81.8;;;67.5;;
63953;SDS011;50128;52.094;5.232;2023-04-23T01:52:45;87.7;;;72.0;;
63953;SDS011;50128;52.094;5.232;2023-04-23T01:54:22;87.8;;;73.0;;
63953;SDS011;50128;52.094;5.232;2023-04-23T01:55:57;79.2;;;67.7;;
63953;SDS011;50128;52.094;5.232;2023-04-23T01:59:13;79.2;;;66.41;;
63953;SDS011;50128;52.094;5.232;2023-04-23T02:00:49;85.0;;;71.41;;
63953;SDS011;50128;52.094;5.232;2023-04-23T02:02:26;80.2;;;68.7;;
63953;SDS011;50128;52.094;5.232;2023-04-23T02:04:02;78.3;;;66.5;;
63953;SDS011;50128;52.094;5.232;2023-04-23T02:07:18;78.0;;;66.91;;
63953;SDS011;50128;52.094;5.232;2023-04-23T02:08:54;86.9;;;71.3;;
63953;SDS011;50128;52.094;5.232;2023-04-23T02:10:30;86.3;;;70.3;;
63953;SDS011;50128;52.094;5.232;2023-04-23T02:13:42;87.7;;;73.2;;
63953;SDS011;50128;52.094;5.232;2023-04-23T02:15:18;78.7;;;67.3;;
63953;SDS011;50128;52.094;5.232;2023-04-23T02:16:54;78.7;;;67.3;;
63953;SDS011;50128;52.094;5.232;2023-04-23T02:20:07;84.8;;;69.7;;
63953;SDS011;50128;52.094;5.232;2023-04-23T02:21:45;77.0;;;65.1;;
63953;SDS011;50128;52.094;5.232;2023-04-23T02:23:21;75.8;;;64.8;;
63953;SDS011;50128;52.094;5.232;2023-04-23T02:24:57;79.0;;;66.41;;
63953;SDS011;50128;52.094;5.232;2023-04-23T02:28:10;79.0;;;66.41;;
63953;SDS011;50128;52.094;5.232;2023-04-23T02:29:47;76.41;;;64.91;;
63953;SDS011;50128;52.094;5.232;2023-04-23T02:31:24;76.11;;;63.9;;
63953;SDS011;50128;52.094;5.232;2023-04-23T02:34:37;73.11;;;62.6;;
63953;SDS011;50128;52.094;5.232;2023-04-23T02:36:13;75.2;;;63.8;;
63953;SDS011;50128;52.094;5.232;2023-04-23T02:37:50;69.91;;;60.0;;
63953;SDS011;50128;52.094;5.232;2023-04-23T02:41:04;76.91;;;64.91;;
63953;SDS011;50128;52.094;5.232;2023-04-23T02:42:40;80.2;;;65.91;;
63953;SDS011;50128;52.094;5.232;2023-04-23T02:44:16;72.2;;;61.4;;
63953;SDS011;50128;52.094;5.232;2023-04-23T02:45:53;75.5;;;62.4;;
63953;SDS011;50128;52.094;5.232;2023-04-23T02:49:06;77.11;;;64.0;;
63953;SDS011;50128;52.094;5.232;2023-04-23T02:50:42;73.41;;;62.3;;
63953;SDS011;50128;52.094;5.232;2023-04-23T02:52:19;70.41;;;60.9;;
63953;SDS011;50128;52.094;5.232;2023-04-23T02:55:33;69.5;;;60.1;;
63953;SDS011;50128;52.094;5.232;2023-04-23T02:57:09;71.3;;;60.1;;
63953;SDS011;50128;52.094;5.232;2023-04-23T02:58:45;77.0;;;64.5;;
63953;SDS011;50128;52.094;5.232;2023-04-23T03:01:59;74.3;;;63.0;;
63953;SDS011;50128;52.094;5.232;2023-04-23T03:03:36;68.41;;;58.9;;
63953;SDS011;50128;52.094;5.232;2023-04-23T03:05:13;67.41;;;57.0;;
63953;SDS011;50128;52.094;5.232;2023-04-23T03:06:49;75.7;;;63.2;;
63953;SDS011;50128;52.094;5.232;2023-04-23T03:10:02;72.7;;;61.6;;
63953;SDS011;50128;52.094;5.232;2023-04-23T03:11:39;74.3;;;61.1;;
63953;SDS011;50128;52.094;5.232;2023-04-23T03:13:15;65.3;;;55.6;;
63953;SDS011;50128;52.094;5.232;2023-04-23T03:16:28;64.8;;;55.1;;
63953;SDS011;50128;52.094;5.232;2023-04-23T03:48:32;64.1;;;53.8;;
63953;SDS011;50128;52.094;5.232;2023-04-23T03:51:45;62.7;;;53.7;;
63953;SDS011;50128;52.094;5.232;2023-04-23T03:53:23;60.2;;;51.5;;
63953;SDS011;50128;52.094;5.232;2023-04-23T03:54:59;60.3;;;51.2;;
63953;SDS011;50128;52.094;5.232;2023-04-23T03:58:12;62.0;;;53.5;;
63953;SDS011;50128;52.094;5.232;2023-04-23T03:59:48;59.9;;;52.2;;
63953;SDS011;50128;52.094;5.232;2023-04-23T04:01:24;62.7;;;54.7;;
63953;SDS011;50128;52.094;5.232;2023-04-23T04:04:37;61.8;;;53.1;;
63953;SDS011;50128;52.094;5.232;2023-04-23T04:06:13;58.4;;;50.2;;
63953;SDS011;50128;52.094;5.232;2023-04-23T04:07:50;60.4;;;53.3;;
63953;SDS011;50128;52.094;5.232;2023-04-23T04:09:26;59.4;;;51.2;;
63953;SDS011;50128;52.094;5.232;2023-04-23T04:12:39;51.9;;;46.2;;
63953;SDS011;50128;52.094;5.232;2023-04-23T04:14:15;55.4;;;48.4;;
63953;SDS011;50128;52.094;5.232;2023-04-23T04:15:51;53.3;;;47.5;;
63953;SDS011;50128;52.094;5.232;2023-04-23T04:19:05;54.5;;;47.8;;
63953;SDS011;50128;52.094;5.232;2023-04-23T04:20:42;59.9;;;50.8;;
63953;SDS011;50128;52.094;5.232;2023-04-23T04:22:18;57.4;;;49.2;;
63953;SDS011;50128;52.094;5.232;2023-04-23T04:25:32;51.1;;;45.5;;
63953;SDS011;50128;52.094;5.232;2023-04-23T04:27:08;61.1;;;52.2;;
63953;SDS011;50128;52.094;5.232;2023-04-23T04:28:44;51.9;;;46.3;;
63953;SDS011;50128;52.094;5.232;2023-04-23T04:31:57;59.0;;;49.9;;
63953;SDS011;50128;52.094;5.232;2023-04-23T04:33:33;54.2;;;47.6;;
63953;SDS011;50128;52.094;5.232;2023-04-23T04:35:09;58.1;;;49.2;;
63953;SDS011;50128;52.094;5.232;2023-04-23T04:36:45;52.3;;;46.6;;
63953;SDS011;50128;52.094;5.232;2023-04-23T04:39:58;53.1;;;47.3;;
63953;SDS011;50128;52.094;5.232;2023-04-23T04:41:35;55.2;;;49.1;;
63953;SDS011;50128;52.094;5.232;2023-04-23T04:43:11;58.9;;;51.0;;
63953;SDS011;50128;52.094;5.232;2023-04-23T04:46:24;54.9;;;48.8;;
63953;SDS011;50128;52.094;5.232;2023-04-23T04:48:00;55.6;;;49.3;;
63953;SDS011;50128;52.094;5.232;2023-04-23T04:49:37;56.3;;;49.8;;
63953;SDS011;50128;52.094;5.232;2023-04-23T04:52:50;55.6;;;48.0;;
63953;SDS011;50128;52.094;5.232;2023-04-23T04:54:26;50.7;;;45.1;;
63953;SDS011;50128;52.094;5.232;2023-04-23T04:56:02;52.9;;;46.6;;
63953;SDS011;50128;52.094;5.232;2023-04-23T04:57:39;48.8;;;43.6;;
63953;SDS011;50128;52.094;5.232;2023-04-23T05:00:53;54.0;;;47.4;;
63953;SDS011;50128;52.094;5.232;2023-04-23T05:02:30;54.6;;;48.7;;
63953;SDS011;50128;52.094;5.232;2023-04-23T05:04:06;51.2;;;45.7;;
63953;SDS011;50128;52.094;5.232;2023-04-23T05:07:19;49.1;;;44.0;;
63953;SDS011;50128;52.094;5.232;2023-04-23T05:08:55;51.3;;;45.7;;
63953;SDS011;50128;52.094;5.232;2023-04-23T05:10:32;48.5;;;43.4;;
63953;SDS011;50128;52.094;5.232;2023-04-23T05:13:44;52.8;;;47.0;;
63953;SDS011;50128;52.094;5.232;2023-04-23T05:15:21;50.2;;;44.8;;
63953;SDS011;50128;52.094;5.232;2023-04-23T05:16:57;51.5;;;45.9;;
63953;SDS011;50128;52.094;5.232;2023-04-23T05:18:33;50.9;;;45.4;;
63953;SDS011;50128;52.094;5.232;2023-04-23T05:21:47;52.9;;;47.2;;
63953;SDS011;50128;52.094;5.232;2023-04-23T05:23:23;46.4;;;41.5;;
63953;SDS011;50128;52.094;5.232;2023-04-23T05:24:59;49.4;;;44.2;;
63953;SDS011;50128;52.094;5.232;2023-04-23T05:28:12;52.3;;;46.6;;
63953;SDS011;50128;52.094;5.232;2023-04-23T05:29:48;47.1;;;42.0;;
63953;SDS011;50128;52.094;5.232;2023-04-23T05:31:24;51.6;;;46.1;;
63953;SDS011;50128;52.094;5.232;2023-04-23T05:34:37;50.9;;;45.4;;
63953;SDS011;50128;52.094;5.232;2023-04-23T05:36:14;49.4;;;44.1;;
63953;SDS011;50128;52.094;5.232;2023-04-23T05:37:50;46.8;;;41.9;;
63953;SDS011;50128;52.094;5.232;2023-04-23T05:39:26;46.0;;;41.1;;
63953;SDS011;50128;52.094;5.232;2023-04-23T05:42:39;47.2;;;42.1;;
63953;SDS011;50128;52.094;5.232;2023-04-23T05:44:15;47.1;;;42.1;;
63953;SDS011;50128;52.094;5.232;2023-04-23T05:45:51;45.5;;;40.71;;
63953;SDS011;50128;52.094;5.232;2023-04-23T05:49:04;45.5;;;40.81;;
63953;SDS011;50128;52.094;5.232;2023-04-23T05:50:40;42.2;;;37.9;;
63953;SDS011;50128;52.094;5.232;2023-04-23T05:52:17;43.1;;;38.71;;
63953;SDS011;50128;52.094;5.232;2023-04-23T05:55:30;40.4;;;36.31;;
63953;SDS011;50128;52.094;5.232;2023-04-23T05:57:06;39.9;;;35.9;;
63953;SDS011;50128;52.094;5.232;2023-04-23T05:58:42;38.6;;;34.9;;
63953;SDS011;50128;52.094;5.232;2023-04-23T06:00:18;39.71;;;35.9;;
63953;SDS011;50128;52.094;5.232;2023-04-23T06:03:30;39.0;;;35.1;;
63953;SDS011;50128;52.094;5.232;2023-04-23T06:05:07;39.21;;;35.5;;
63953;SDS011;50128;52.094;5.232;2023-04-23T06:06:44;36.31;;;32.8;;
63953;SDS011;50128;52.094;5.232;2023-04-23T06:09:56;34.31;;;31.0;;
63953;SDS011;50128;52.094;5.232;2023-04-23T06:11:32;34.4;;;31.1;;
63953;SDS011;50128;52.094;5.232;2023-04-23T06:13:08;33.6;;;30.3;;
63953;SDS011;50128;52.094;5.232;2023-04-23T06:16:22;34.1;;;30.8;;
63953;SDS011;50128;52.094;5.232;2023-04-23T06:17:59;34.0;;;30.7;;
63953;SDS011;50128;52.094;5.232;2023-04-23T06:19:35;34.21;;;30.9;;
63953;SDS011;50128;52.094;5.232;2023-04-23T06:22:48;31.9;;;28.8;;
63953;SDS011;50128;52.094;5.232;2023-04-23T06:24:24;33.4;;;30.3;;
63953;SDS011;50128;52.094;5.232;2023-04-23T06:26:01;31.6;;;28.6;;
63953;SDS011;50128;52.094;5.232;2023-04-23T06:27:37;31.1;;;27.9;;
63953;SDS011;50128;52.094;5.232;2023-04-23T06:30:50;32.5;;;29.3;;
63953;SDS011;50128;52.094;5.232;2023-04-23T06:32:27;27.0;;;24.5;;
63953;SDS011;50128;52.094;5.232;2023-04-23T06:34:03;29.1;;;26.3;;
63953;SDS011;50128;52.094;5.232;2023-04-23T06:37:15;27.8;;;25.0;;
63953;SDS011;50128;52.094;5.232;2023-04-23T06:38:52;29.0;;;26.3;;
63953;SDS011;50128;52.094;5.232;2023-04-23T06:40:28;28.5;;;25.8;;
63953;SDS011;50128;52.094;5.232;2023-04-23T06:43:41;27.8;;;25.1;;
63953;SDS011;50128;52.094;5.232;2023-04-23T06:45:17;23.6;;;21.4;;
63953;SDS011;50128;52.094;5.232;2023-04-23T06:46:54;26.6;;;24.1;;
63953;SDS011;50128;52.094;5.232;2023-04-23T06:48:30;24.9;;;22.6;;
63953;SDS011;50128;52.094;5.232;2023-04-23T06:51:44;21.8;;;19.7;;
63953;SDS011;50128;52.094;5.232;2023-04-23T06:53:21;23.6;;;21.4;;
63953;SDS011;50128;52.094;5.232;2023-04-23T06:54:57;20.11;;;18.2;;
63953;SDS011;50128;52.094;5.232;2023-04-23T06:58:09;20.2;;;18.2;;
63953;SDS011;50128;52.094;5.232;2023-04-23T06:59:46;18.41;;;16.61;;
63953;SDS011;50128;52.094;5.232;2023-04-23T07:01:22;18.7;;;16.9;;
63953;SDS011;50128;52.094;5.232;2023-04-23T07:04:35;19.3;;;17.41;;
63953;SDS011;50128;52.094;5.232;2023-04-23T07:06:11;17.2;;;15.5;;
63953;SDS011;50128;52.094;5.232;2023-04-23T07:07:48;17.5;;;15.8;;
63953;SDS011;50128;52.094;5.232;2023-04-23T07:09:25;18.0;;;16.2;;
63953;SDS011;50128;52.094;5.232;2023-04-23T07:12:37;16.7;;;15.1;;
63953;SDS011;50128;52.094;5.232;2023-04-23T07:14:14;16.61;;;15.0;;
63953;SDS011;50128;52.094;5.232;2023-04-23T07:15:51;16.5;;;14.8;;
63953;SDS011;50128;52.094;5.232;2023-04-23T07:19:03;16.61;;;14.9;;
63953;SDS011;50128;52.094;5.232;2023-04-23T07:20:39;15.8;;;14.2;;
63953;SDS011;50128;52.094;5.232;2023-04-23T07:22:16;15.4;;;13.8;;
63953;SDS011;50128;52.094;5.232;2023-04-23T07:25:31;14.6;;;13.1;;
63953;SDS011;50128;52.094;5.232;2023-04-23T07:27:07;15.6;;;14.0;;
63953;SDS011;50128;52.094;5.232;2023-04-23T07:28:45;15.8;;;14.2;;
63953;SDS011;50128;52.094;5.232;2023-04-23T07:30:23;15.2;;;13.7;;
63953;SDS011;50128;52.094;5.232;2023-04-23T07:33:36;15.3;;;13.0;;
63953;SDS011;50128;52.094;5.232;2023-04-23T07:35:13;13.8;;;12.4;;
63953;SDS011;50128;52.094;5.232;2023-04-23T07:36:49;13.5;;;11.7;;
63953;SDS011;50128;52.094;5.232;2023-04-23T07:40:02;13.1;;;11.7;;
63953;SDS011;50128;52.094;5.232;2023-04-23T07:41:41;12.8;;;11.5;;
63953;SDS011;50128;52.094;5.232;2023-04-23T07:43:17;12.7;;;10.7;;
63953;SDS011;50128;52.094;5.232;2023-04-23T07:46:29;13.3;;;11.8;;
63953;SDS011;50128;52.094;5.232;2023-04-23T07:48:05;12.5;;;11.2;;
63953;SDS011;50128;52.094;5.232;2023-04-23T07:49:42;12.9;;;11.0;;
63953;SDS011;50128;52.094;5.232;2023-04-23T07:51:20;12.3;;;10.4;;
63953;SDS011;50128;52.094;5.232;2023-04-23T07:54:33;12.3;;;10.4;;
63953;SDS011;50128;52.094;5.232;2023-04-23T07:56:09;13.2;;;10.0;;
63953;SDS011;50128;52.094;5.232;2023-04-23T07:57:46;11.9;;;9.31;;
63953;SDS011;50128;52.094;5.232;2023-04-23T08:01:00;10.9;;;8.6;;
63953;SDS011;50128;52.094;5.232;2023-04-23T08:02:37;11.7;;;9.31;;
63953;SDS011;50128;52.094;5.232;2023-04-23T08:04:14;12.3;;;9.1;;
63953;SDS011;50128;52.094;5.232;2023-04-23T08:05:50;10.1;;;8.81;;
63953;SDS011;50128;52.094;5.232;2023-04-23T08:09:02;10.0;;;7.9;;
63953;SDS011;50128;52.094;5.232;2023-04-23T08:10:39;9.21;;;7.2;;
63953;SDS011;50128;52.094;5.232;2023-04-23T08:12:17;13.1;;;8.0;;
63953;SDS011;50128;52.094;5.232;2023-04-23T08:15:30;9.4;;;6.8;;
63953;SDS011;50128;52.094;5.232;2023-04-23T08:17:07;11.2;;;7.2;;
63953;SDS011;50128;52.094;5.232;2023-04-23T08:18:43;9.9;;;6.5;;
63953;SDS011;50128;52.094;5.232;2023-04-23T08:21:56;11.7;;;6.8;;
63953;SDS011;50128;52.094;5.232;2023-04-23T08:23:32;9.4;;;6.5;;
63953;SDS011;50128;52.094;5.232;2023-04-23T08:25:09;10.1;;;6.5;;
63953;SDS011;50128;52.094;5.232;2023-04-23T08:26:46;11.2;;;6.8;;
63953;SDS011;50128;52.094;5.232;2023-04-23T08:29:59;9.1;;;6.1;;
63953;SDS011;50128;52.094;5.232;2023-04-23T08:31:35;10.21;;;6.4;;
63953;SDS011;50128;52.094;5.232;2023-04-23T08:33:12;12.3;;;6.1;;
63953;SDS011;50128;52.094;5.232;2023-04-23T08:36:25;9.6;;;6.3;;
63953;SDS011;50128;52.094;5.232;2023-04-23T08:38:01;12.4;;;5.6;;
63953;SDS011;50128;52.094;5.232;2023-04-23T08:39:38;8.6;;;5.3;;
63953;SDS011;50128;52.094;5.232;2023-04-23T08:43:00;12.6;;;6.5;;
63953;SDS011;50128;52.094;5.232;2023-04-23T08:44:38;11.1;;;5.7;;
63953;SDS011;50128;52.094;5.232;2023-04-23T08:46:17;10.6;;;5.4;;
63953;SDS011;50128;52.094;5.232;2023-04-23T08:47:55;12.3;;;5.3;;
63953;SDS011;50128;52.094;5.232;2023-04-23T08:51:17;12.1;;;5.5;;
63953;SDS011;50128;52.094;5.232;2023-04-23T08:52:56;9.5;;;5.7;;
63953;SDS011;50128;52.094;5.232;2023-04-23T08:54:32;10.21;;;5.6;;
63953;SDS011;50128;52.094;5.232;2023-04-23T08:56:12;12.0;;;5.9;;
63953;SDS011;50128;52.094;5.232;2023-04-23T08:59:27;9.31;;;5.3;;
63953;SDS011;50128;52.094;5.232;2023-04-23T09:01:05;10.4;;;5.3;;
63953;SDS011;50128;52.094;5.232;2023-04-23T09:02:43;13.8;;;6.0;;
63953;SDS011;50128;52.094;5.232;2023-04-23T09:05:57;10.1;;;5.0;;
63953;SDS011;50128;52.094;5.232;2023-04-23T09:07:34;9.6;;;5.0;;
63953;SDS011;50128;52.094;5.232;2023-04-23T09:09:11;11.9;;;5.6;;
63953;SDS011;50128;52.094;5.232;2023-04-23T09:10:51;10.9;;;5.2;;
63953;SDS011;50128;52.094;5.232;2023-04-23T09:14:11;10.4;;;5.4;;
63953;SDS011;50128;52.094;5.232;2023-04-23T09:15:47;10.5;;;5.2;;
63953;SDS011;50128;52.094;5.232;2023-04-23T09:17:24;12.1;;;5.11;;
63953;SDS011;50128;52.094;5.232;2023-04-23T09:19:04;11.6;;;4.91;;
63953;SDS011;50128;52.094;5.232;2023-04-23T09:22:36;10.0;;;4.7;;
63953;SDS011;50128;52.094;5.232;2023-04-23T09:24:27;11.7;;;4.61;;
63953;SDS011;50128;52.094;5.232;2023-04-23T09:26:04;9.4;;;4.61;;
63953;SDS011;50128;52.094;5.232;2023-04-23T09:27:42;10.4;;;4.41;;
63953;SDS011;50128;52.094;5.232;2023-04-23T09:30:57;9.5;;;4.3;;
63953;SDS011;50128;52.094;5.232;2023-04-23T09:32:34;10.7;;;4.41;;
63953;SDS011;50128;52.094;5.232;2023-04-23T09:34:13;10.3;;;4.1;;
63953;SDS011;50128;52.094;5.232;2023-04-23T09:35:50;8.0;;;4.3;;
63953;SDS011;50128;52.094;5.232;2023-04-23T09:39:10;8.81;;;4.1;;
63953;SDS011;50128;52.094;5.232;2023-04-23T09:40:46;8.9;;;4.3;;
63953;SDS011;50128;52.094;5.232;2023-04-23T09:42:25;8.0;;;3.8;;
63953;SDS011;50128;52.094;5.232;2023-04-23T09:45:46;10.5;;;4.0;;
63953;SDS011;50128;52.094;5.232;2023-04-23T09:47:23;10.21;;;3.4;;
63953;SDS011;50128;52.094;5.232;2023-04-23T09:49:00;9.81;;;4.0;;
63953;SDS011;50128;52.094;5.232;2023-04-23T09:50:39;10.4;;;3.6;;
63953;SDS011;50128;52.094;5.232;2023-04-23T09:53:53;10.21;;;4.0;;
63953;SDS011;50128;52.094;5.232;2023-04-23T09:55:30;8.4;;;3.6;;
63953;SDS011;50128;52.094;5.232;2023-04-23T09:57:07;8.6;;;3.8;;
63953;SDS011;50128;52.094;5.232;2023-04-23T10:00:21;8.1;;;3.7;;
63953;SDS011;50128;52.094;5.232;2023-04-23T10:01:57;8.5;;;3.6;;
63953;SDS011;50128;52.094;5.232;2023-04-23T10:03:40;8.6;;;4.0;;
63953;SDS011;50128;52.094;5.232;2023-04-23T10:05:17;8.6;;;4.0;;
63953;SDS011;50128;52.094;5.232;2023-04-23T10:08:33;8.81;;;3.8;;
63953;SDS011;50128;52.094;5.232;2023-04-23T10:10:10;8.71;;;4.0;;
63953;SDS011;50128;52.094;5.232;2023-04-23T10:11:47;7.3;;;3.4;;
63953;SDS011;50128;52.094;5.232;2023-04-23T10:13:26;7.6;;;3.2;;
63953;SDS011;50128;52.094;5.232;2023-04-23T10:16:40;9.21;;;3.3;;
63953;SDS011;50128;52.094;5.232;2023-04-23T10:18:19;9.1;;;3.2;;
63953;SDS011;50128;52.094;5.232;2023-04-23T10:19:56;8.9;;;2.9;;
63953;SDS011;50128;52.094;5.232;2023-04-23T10:23:13;8.2;;;2.9;;
63953;SDS011;50128;52.094;5.232;2023-04-23T10:24:55;9.71;;;3.4;;
63953;SDS011;50128;52.094;5.232;2023-04-23T10:26:33;7.9;;;2.8;;
63953;SDS011;50128;52.094;5.232;2023-04-23T10:28:12;7.7;;;2.5;;
63953;SDS011;50128;52.094;5.232;2023-04-23T10:31:32;6.2;;;2.5;;
63953;SDS011;50128;52.094;5.232;2023-04-23T10:33:09;7.3;;;2.4;;
63953;SDS011;50128;52.094;5.232;2023-04-23T10:34:47;7.9;;;2.9;;
63953;SDS011;50128;52.094;5.232;2023-04-23T10:38:01;6.8;;;2.7;;
63953;SDS011;50128;52.094;5.232;2023-04-23T10:39:39;7.6;;;2.8;;
63953;SDS011;50128;52.094;5.232;2023-04-23T10:41:20;9.0;;;2.9;;
63953;SDS011;50128;52.094;5.232;2023-04-23T10:43:02;9.0;;;3.1;;
63953;SDS011;50128;52.094;5.232;2023-04-23T10:46:33;10.1;;;2.9;;
63953;SDS011;50128;52.094;5.232;2023-04-23T10:48:10;7.8;;;2.7;;
63953;SDS011;50128;52.094;5.232;2023-04-23T10:49:47;7.9;;;3.5;;
63953;SDS011;50128;52.094;5.232;2023-04-23T10:51:31;7.5;;;2.5;;
63953;SDS011;50128;52.094;5.232;2023-04-23T10:54:55;9.21;;;2.9;;
63953;SDS011;50128;52.094;5.232;2023-04-23T10:56:33;8.71;;;2.9;;
63953;SDS011;50128;52.094;5.232;2023-04-23T10:58:09;7.4;;;2.6;;
63953;SDS011;50128;52.094;5.232;2023-04-23T10:59:50;5.8;;;2.21;;
63953;SDS011;50128;52.094;5.232;2023-04-23T11:03:03;6.6;;;2.21;;
63953;SDS011;50128;52.094;5.232;2023-04-23T11:04:41;7.4;;;2.21;;
63953;SDS011;50128;52.094;5.232;2023-04-23T11:08:28;7.5;;;2.4;;
63953;SDS011;50128;52.094;5.232;2023-04-23T11:10:09;7.2;;;2.31;;
63953;SDS011;50128;52.094;5.232;2023-04-23T11:13:24;7.6;;;2.0;;
63953;SDS011;50128;52.094;5.232;2023-04-23T11:15:09;5.8;;;1.7;;
63953;SDS011;50128;52.094;5.232;2023-04-23T11:16:47;6.5;;;2.0;;
63953;SDS011;50128;52.094;5.232;2023-04-23T11:18:23;7.5;;;2.1;;
63953;SDS011;50128;52.094;5.232;2023-04-23T11:22:02;6.0;;;1.9;;
63953;SDS011;50128;52.094;5.232;2023-04-23T11:23:40;5.3;;;2.0;;
63953;SDS011;50128;52.094;5.232;2023-04-23T11:25:20;7.1;;;2.0;;
63953;SDS011;50128;52.094;5.232;2023-04-23T11:26:58;6.6;;;1.9;;
63953;SDS011;50128;52.094;5.232;2023-04-23T11:30:18;4.8;;;1.7;;
63953;SDS011;50128;52.094;5.232;2023-04-23T11:31:57;6.6;;;1.8;;
63953;SDS011;50128;52.094;5.232;2023-04-23T11:33:34;6.9;;;2.0;;
63953;SDS011;50128;52.094;5.232;2023-04-23T11:35:12;5.3;;;1.6;;
63953;SDS011;50128;52.094;5.232;2023-04-23T11:38:30;7.0;;;2.0;;
63953;SDS011;50128;52.094;5.232;2023-04-23T11:40:07;6.3;;;2.0;;
63953;SDS011;50128;52.094;5.232;2023-04-23T11:41:45;5.9;;;1.9;;
63953;SDS011;50128;52.094;5.232;2023-04-23T11:44:58;5.7;;;1.9;;
63953;SDS011;50128;52.094;5.232;2023-04-23T11:46:35;6.7;;;1.9;;
63953;SDS011;50128;52.094;5.232;2023-04-23T11:48:11;6.3;;;2.1;;
63953;SDS011;50128;52.094;5.232;2023-04-23T11:49:47;8.0;;;2.0;;
63953;SDS011;50128;52.094;5.232;2023-04-23T11:53:03;9.1;;;2.6;;
63953;SDS011;50128;52.094;5.232;2023-04-23T11:54:40;6.0;;;1.9;;
63953;SDS011;50128;52.094;5.232;2023-04-23T11:56:17;7.9;;;2.1;;
63953;SDS011;50128;52.094;5.232;2023-04-23T11:59:32;7.7;;;2.0;;
63953;SDS011;50128;52.094;5.232;2023-04-23T12:01:09;6.8;;;2.4;;
63953;SDS011;50128;52.094;5.232;2023-04-23T12:02:49;5.11;;;1.9;;
63953;SDS011;50128;52.094;5.232;2023-04-23T12:04:31;6.7;;;2.1;;
63953;SDS011;50128;52.094;5.232;2023-04-23T12:07:46;5.7;;;1.9;;
63953;SDS011;50128;52.094;5.232;2023-04-23T12:09:24;6.5;;;1.9;;
63953;SDS011;50128;52.094;5.232;2023-04-23T12:11:01;4.8;;;1.8;;
63953;SDS011;50128;52.094;5.232;2023-04-23T12:14:15;5.4;;;1.6;;
63953;SDS011;50128;52.094;5.232;2023-04-23T12:15:53;6.2;;;1.8;;
63953;SDS011;50128;52.094;5.232;2023-04-23T12:17:32;6.2;;;2.1;;
63953;SDS011;50128;52.094;5.232;2023-04-23T12:19:08;5.11;;;1.7;;
63953;SDS011;50128;52.094;5.232;2023-04-23T12:22:25;6.4;;;1.8;;
63953;SDS011;50128;52.094;5.232;2023-04-23T12:24:02;6.5;;;1.8;;
63953;SDS011;50128;52.094;5.232;2023-04-23T12:25:39;5.9;;;1.6;;
63953;SDS011;50128;52.094;5.232;2023-04-23T12:28:55;7.5;;;1.9;;
63953;SDS011;50128;52.094;5.232;2023-04-23T12:30:41;5.5;;;2.1;;
63953;SDS011;50128;52.094;5.232;2023-04-23T12:32:19;7.0;;;1.8;;
63953;SDS011;50128;52.094;5.232;2023-04-23T12:34:01;6.4;;;2.1;;
63953;SDS011;50128;52.094;5.232;2023-04-23T12:37:15;5.8;;;1.8;;
63953;SDS011;50128;52.094;5.232;2023-04-23T12:38:51;6.9;;;1.9;;
63953;SDS011;50128;52.094;5.232;2023-04-23T12:40:28;6.4;;;2.1;;
63953;SDS011;50128;52.094;5.232;2023-04-23T12:42:04;5.8;;;1.8;;
63953;SDS011;50128;52.094;5.232;2023-04-23T12:45:18;6.9;;;1.8;;
63953;SDS011;50128;52.094;5.232;2023-04-23T12:46:55;5.9;;;1.8;;
63953;SDS011;50128;52.094;5.232;2023-04-23T12:48:33;7.8;;;1.7;;
63953;SDS011;50128;52.094;5.232;2023-04-23T12:51:47;4.1;;;1.6;;
63953;SDS011;50128;52.094;5.232;2023-04-23T12:53:23;5.3;;;1.7;;
63953;SDS011;50128;52.094;5.232;2023-04-23T12:54:59;5.11;;;1.3;;
63953;SDS011;50128;52.094;5.232;2023-04-23T12:58:11;6.3;;;1.9;;
63953;SDS011;50128;52.094;5.232;2023-04-23T12:59:47;6.7;;;1.6;;
63953;SDS011;50128;52.094;5.232;2023-04-23T13:01:23;5.4;;;1.5;;
63953;SDS011;50128;52.094;5.232;2023-04-23T13:03:00;4.91;;;1.7;;
63953;SDS011;50128;52.094;5.232;2023-04-23T13:06:14;5.3;;;1.8;;
63953;SDS011;50128;52.094;5.232;2023-04-23T13:07:50;6.2;;;1.7;;
63953;SDS011;50128;52.094;5.232;2023-04-23T13:09:26;4.5;;;1.5;;
63953;SDS011;50128;52.094;5.232;2023-04-23T13:12:39;5.4;;;1.8;;
63953;SDS011;50128;52.094;5.232;2023-04-23T13:14:15;4.41;;;1.4;;